Time;durP1;ratioP1;P1;durP2;ratioP2;P2;SDS_P1;SDS_P2;PMS_P1;PMS_P2;Temp;Humidity;BMP_temperature;BMP_pressure;BME280_temperature;BME280_humidity;BME280_pressure;Samples;Min_cycle;Max_cycle;Signal;HPM_P1;HPM_P2
2022/12/12 00:01:42;;;;;;;25.15;14.30;;;;;;;0.09;100.00;100957.09;5053104;28;20439;-50
2022/12/12 00:04:10;;;;;;;25.70;13.80;;;;;;;0.09;100.00;100967.44;5053211;28;20735;-51
2022/12/12 00:06:38;;;;;;;28.52;15.32;;;;;;;0.11;100.00;100962.25;5052687;28;20056;-48
2022/12/12 00:09:08;;;;;;;25.52;13.95;;;;;;;0.13;100.00;100966.50;5050406;28;20080;-51
2022/12/12 00:11:36;;;;;;;25.88;13.35;;;;;;;0.10;100.00;100961.41;5049018;28;20495;-51
2022/12/12 00:14:05;;;;;;;24.77;13.77;;;;;;;0.14;100.00;100960.44;5048952;28;20049;-51
2022/12/12 00:16:34;;;;;;;24.75;13.55;;;;;;;0.11;100.00;100968.28;5052755;28;20115;-52
2022/12/12 00:19:03;;;;;;;24.40;12.73;;;;;;;0.14;100.00;100967.38;5052822;28;20045;-53
2022/12/12 00:21:31;;;;;;;26.75;13.00;;;;;;;0.11;100.00;100965.69;5052781;28;20052;-49
2022/12/12 00:23:59;;;;;;;25.13;13.60;;;;;;;0.14;100.00;100967.38;5050917;28;20075;-53
2022/12/12 00:26:30;;;;;;;27.13;14.25;;;;;;;0.12;100.00;100964.81;5049026;28;20041;-47
2022/12/12 00:29:00;;;;;;;29.13;14.93;;;;;;;0.13;100.00;100965.66;5050572;28;20049;-49
2022/12/12 00:31:29;;;;;;;24.30;14.05;;;;;;;0.10;100.00;100969.16;5052088;28;20064;-51
2022/12/12 00:33:59;;;;;;;26.35;13.80;;;;;;;0.11;100.00;100973.47;5051505;28;20045;-50
2022/12/12 00:36:30;;;;;;;26.30;13.68;;;;;;;0.13;100.00;100971.69;5051117;28;20064;-48
2022/12/12 00:38:58;;;;;;;24.30;13.77;;;;;;;0.07;100.00;100979.56;5048425;28;20076;-52
2022/12/12 00:41:40;;;;;;;26.50;13.88;;;;;;;0.07;100.00;100970.94;5047206;28;20053;-49
2022/12/12 00:44:09;;;;;;;25.17;13.57;;;;;;;0.07;100.00;100976.97;5052086;28;20431;-51
2022/12/12 00:46:37;;;;;;;26.73;13.85;;;;;;;0.08;100.00;100986.47;5052230;28;20079;-51
2022/12/12 00:49:09;;;;;;;25.98;14.13;;;;;;;0.02;100.00;100981.38;5052243;28;20496;-47
2022/12/12 00:51:37;;;;;;;27.77;13.43;;;;;;;0.06;100.00;100983.03;5052158;28;20053;-47
2022/12/12 00:54:05;;;;;;;24.65;14.80;;;;;;;0.05;100.00;100983.91;5050865;28;20049;-51
2022/12/12 00:56:34;;;;;;;25.80;14.63;;;;;;;0.04;100.00;100982.22;5049071;28;20752;-49
2022/12/12 00:59:02;;;;;;;27.55;14.38;;;;;;;0.04;100.00;100989.13;5047753;28;20052;-49
2022/12/12 01:01:32;;;;;;;28.77;14.38;;;;;;;0.03;100.00;100984.81;5052196;28;20041;-50
2022/12/12 01:04:03;;;;;;;24.75;14.07;;;;;;;0.01;100.00;100978.84;5052072;28;20120;-50
2022/12/12 01:06:33;;;;;;;26.70;14.57;;;;;;;0.02;100.00;100983.97;5052045;28;20041;-49
2022/12/12 01:09:01;;;;;;;26.48;13.90;;;;;;;0.03;100.00;100993.44;5051888;28;20057;-49
2022/12/12 01:11:30;;;;;;;26.73;13.77;;;;;;;0.03;100.00;100993.44;5052040;28;20084;-51
2022/12/12 01:13:58;;;;;;;25.80;14.50;;;;;;;0.04;100.00;100989.13;5051940;28;20049;-48
2022/12/12 01:16:28;;;;;;;24.25;13.63;;;;;;;0.06;100.00;100990.78;5052049;28;20052;-47
2022/12/12 01:18:57;;;;;;;26.88;13.77;;;;;;;0.07;100.00;100992.50;5050676;28;20048;-48
2022/12/12 01:21:25;;;;;;;26.88;14.38;;;;;;;0.11;100.00;100996.75;5052236;28;20484;-48
2022/12/12 01:23:54;;;;;;;24.20;13.23;;;;;;;0.09;100.00;100995.91;5051704;28;20040;-49
2022/12/12 01:26:24;;;;;;;25.30;13.82;;;;;;;0.06;100.00;100995.97;5051912;28;20089;-48
2022/12/12 01:28:53;;;;;;;26.20;14.07;;;;;;;0.01;100.00;101000.38;5052052;28;20044;-48
2022/12/12 01:31:21;;;;;;;25.65;13.57;;;;;;;0.02;100.00;101004.66;5051784;28;20069;-49
2022/12/12 01:33:49;;;;;;;26.38;13.98;;;;;;;0.02;100.00;101004.66;5050377;28;20053;-46
2022/12/12 01:36:21;;;;;;;25.63;12.75;;;;;;;0.08;100.00;101012.31;5051091;28;20079;-49
2022/12/12 01:38:52;;;;;;;27.45;14.57;;;;;;;0.10;100.00;101007.13;5051068;28;20110;-50
2022/12/12 01:41:21;;;;;;;26.58;14.25;;;;;;;0.10;100.00;101018.31;5051338;28;20500;-51
2022/12/12 01:43:50;;;;;;;25.80;13.75;;;;;;;0.10;100.00;101020.88;5051317;28;20077;-49
2022/12/12 01:46:43;;;;;;;26.58;14.05;;;;;;;0.15;100.00;101019.06;5054988;28;20051;-48
2022/12/12 01:49:21;;;;;;;25.10;13.85;;;;;;;0.20;100.00;101010.38;5055537;28;20053;-51
2022/12/12 01:51:52;;;;;;;27.90;13.15;;;;;;;0.15;100.00;101016.50;5055506;28;20049;-49
2022/12/12 01:54:24;;;;;;;26.13;13.55;;;;;;;0.17;100.00;101014.72;5054779;28;20053;-48
2022/12/12 01:56:56;;;;;;;24.83;13.52;;;;;;;0.20;100.00;101008.63;5055007;28;20114;-50
2022/12/12 01:59:25;;;;;;;27.05;14.55;;;;;;;0.21;100.00;101019.84;5055404;28;20095;-48
2022/12/12 02:01:54;;;;;;;26.45;13.18;;;;;;;0.18;100.00;101013.00;5055448;28;20065;-50
2022/12/12 02:04:23;;;;;;;23.80;12.45;;;;;;;0.18;100.00;101013.00;5055396;28;20041;-50
2022/12/12 02:06:52;;;;;;;24.40;13.45;;;;;;;0.12;100.00;101011.38;5055201;28;20049;-47
2022/12/12 02:09:23;;;;;;;26.42;13.65;;;;;;;0.15;100.00;101008.72;5055277;28;20381;-50
2022/12/12 02:11:55;;;;;;;24.33;13.55;;;;;;;0.14;100.00;101013.94;5055058;28;20095;-51
2022/12/12 02:14:27;;;;;;;23.48;13.25;;;;;;;0.08;100.00;101014.91;5054822;28;20049;-50
2022/12/12 02:17:31;;;;;;;24.73;13.10;;;;;;;0.06;100.00;101021.81;5054992;28;20048;-47
2022/12/12 02:20:43;;;;;;;27.23;13.35;;;;;;;0.05;100.00;101009.78;5052114;28;20508;-49
2022/12/12 02:23:49;;;;;;;23.75;12.57;;;;;;;0.05;100.00;101009.78;5054886;28;20083;-48
2022/12/12 02:26:57;;;;;;;25.45;14.18;;;;;;;0.02;100.00;101015.00;5054639;28;20052;-48
2022/12/12 02:29:58;;;;;;;23.50;12.95;;;;;;;-0.01;100.00;101015.06;5054608;28;20125;-51
2022/12/12 02:32:39;;;;;;;23.58;13.23;;;;;;;-0.05;100.00;101021.19;5048600;28;20570;-47
2022/12/12 02:35:15;;;;;;;25.23;13.15;;;;;;;-0.11;100.00;101029.03;5054541;28;20127;-50
2022/12/12 02:37:52;;;;;;;23.90;12.10;;;;;;;-0.09;100.00;101025.53;5054589;28;20053;-48
2022/12/12 02:40:24;;;;;;;26.10;13.80;;;;;;;-0.18;100.00;101024.00;5053100;28;20048;-49
2022/12/12 02:43:03;;;;;;;24.67;12.68;;;;;;;-0.14;100.00;101029.09;5054274;28;20057;-50
2022/12/12 02:45:38;;;;;;;23.90;12.57;;;;;;;-0.21;100.00;101021.44;5054271;28;20045;-51
2022/12/12 02:48:17;;;;;;;23.38;11.75;;;;;;;-0.14;100.00;101029.94;5053027;28;20738;-47
2022/12/12 02:50:48;;;;;;;23.95;12.98;;;;;;;-0.15;100.00;101032.56;5054059;28;20076;-48
2022/12/12 02:53:18;;;;;;;25.08;12.93;;;;;;;-0.17;100.00;101023.09;5054168;28;20507;-51
2022/12/12 02:55:48;;;;;;;23.15;12.52;;;;;;;-0.19;100.00;101024.03;5053321;28;20102;-51
2022/12/12 02:58:18;;;;;;;25.30;13.63;;;;;;;-0.12;100.00;101016.97;5053903;28;20049;-49
2022/12/12 03:01:09;;;;;;;22.95;12.45;;;;;;;-0.12;100.00;101028.19;5053875;28;20049;-49
2022/12/12 03:09:59;;;;;;;24.63;12.70;;;;;;;-0.20;100.00;101030.06;5053709;28;20063;-49
2022/12/12 03:12:38;;;;;;;23.17;12.23;;;;;;;-0.19;100.00;101026.59;5053555;28;20545;-50
2022/12/12 03:15:15;;;;;;;24.90;12.27;;;;;;;-0.18;100.00;101017.94;5053759;28;20053;-52
2022/12/12 03:17:48;;;;;;;23.25;12.18;;;;;;;-0.19;100.00;101017.09;5053922;28;20037;-50
2022/12/12 03:20:22;;;;;;;23.95;13.20;;;;;;;-0.24;100.00;101021.50;5052441;28;20535;-51
2022/12/12 03:22:57;;;;;;;23.17;11.68;;;;;;;-0.23;100.00;101019.75;5053601;28;20107;-50
2022/12/12 03:25:33;;;;;;;25.55;12.80;;;;;;;-0.32;100.00;101022.53;5053585;28;20480;-47
2022/12/12 03:28:06;;;;;;;22.08;12.07;;;;;;;-0.40;100.00;101025.22;5053522;28;20385;-49
2022/12/12 03:30:39;;;;;;;23.65;12.60;;;;;;;-0.42;100.00;101019.25;5053505;28;20160;-48
2022/12/12 03:33:17;;;;;;;25.05;12.05;;;;;;;-0.41;100.00;101026.09;5053399;28;20049;-50
2022/12/12 03:35:53;;;;;;;21.05;11.60;;;;;;;-0.42;100.00;101024.41;5053461;28;20041;-49
2022/12/12 03:38:25;;;;;;;29.08;12.13;;;;;;;-0.40;100.00;101026.06;5053332;28;20045;-48
2022/12/12 03:40:57;;;;;;;23.40;12.68;;;;;;;-0.41;100.00;101028.69;5053541;28;20045;-48
2022/12/12 03:46:17;;;;;;;22.08;11.55;;;;;;;-0.47;100.00;101031.38;5048195;28;20539;-49
2022/12/12 03:49:02;;;;;;;23.17;12.02;;;;;;;-0.56;100.00;101029.78;5051948;28;20128;-48
2022/12/12 03:51:36;;;;;;;22.90;11.93;;;;;;;-0.59;100.00;101028.09;5053002;28;20044;-47
2022/12/12 03:54:22;;;;;;;23.00;12.63;;;;;;;-0.61;100.00;101029.88;5051344;28;20060;-52
2022/12/12 03:56:56;;;;;;;21.67;11.80;;;;;;;-0.65;100.00;101032.53;5051590;28;20118;-53
2022/12/12 03:59:42;;;;;;;23.63;11.52;;;;;;;-0.66;100.00;101038.56;5046572;28;20056;-51
2022/12/12 04:02:18;;;;;;;24.83;11.88;;;;;;;-0.75;100.00;101034.38;5052113;28;20106;-48
2022/12/12 04:04:56;;;;;;;25.00;11.88;;;;;;;-0.79;100.00;101033.59;5052698;28;20049;-51
2022/12/12 04:07:29;;;;;;;21.77;11.57;;;;;;;-0.90;100.00;101035.47;5051769;28;20053;-49
2022/12/12 04:13:02;;;;;;;22.55;12.07;;;;;;;-1.00;100.00;101041.66;5052778;28;20114;-51
2022/12/12 04:15:55;;;;;;;22.60;12.05;;;;;;;-1.06;100.00;101037.44;5052512;28;20649;-52
2022/12/12 04:18:34;;;;;;;22.40;11.40;;;;;;;-1.12;100.00;101037.50;5052891;28;20415;-49
2022/12/12 04:24:09;;;;;;;21.90;12.18;;;;;;;-1.16;100.00;101036.66;5052640;28;20057;-53
2022/12/12 04:26:43;;;;;;;21.35;11.68;;;;;;;-1.26;100.00;101038.53;5052271;28;20076;-59
2022/12/12 04:29:28;;;;;;;21.67;11.18;;;;;;;-1.26;100.00;101035.94;5047462;28;20086;-50
2022/12/12 04:32:03;;;;;;;23.90;12.95;;;;;;;-1.27;100.00;101039.41;5049547;28;20495;-49
2022/12/12 04:34:38;;;;;;;22.65;11.38;;;;;;;-1.30;100.00;101038.59;5052123;28;20057;-49
2022/12/12 04:37:09;;;;;;;24.15;11.52;;;;;;;-1.45;100.00;101037.06;5052074;28;20086;-52
2022/12/12 04:39:41;;;;;;;23.15;11.85;;;;;;;-1.47;100.00;101043.94;5052075;28;20095;-47
2022/12/12 04:42:14;;;;;;;24.70;12.93;;;;;;;-1.53;100.00;101047.47;5048777;28;20061;-48
2022/12/12 04:44:44;;;;;;;23.25;12.65;;;;;;;-1.52;100.00;101046.59;5049087;28;20040;-47
2022/12/12 04:47:15;;;;;;;24.98;12.82;;;;;;;-1.56;100.00;101043.19;5052040;28;20049;-48
2022/12/12 04:49:47;;;;;;;23.52;12.00;;;;;;;-1.60;100.00;101051.00;5052233;28;20040;-50
2022/12/12 04:52:18;;;;;;;;;;;;;;;-1.63;100.00;101046.72;5052549;28;20447;-49
2022/12/12 04:54:54;;;;;;;25.08;11.30;;;;;;;-1.71;100.00;101049.38;5052133;28;20322;-49
2022/12/12 04:57:27;;;;;;;22.50;11.13;;;;;;;-1.70;100.00;101051.09;5052243;28;20041;-48
2022/12/12 04:59:56;;;;;;;26.40;12.98;;;;;;;-1.75;100.00;101059.75;5052269;28;20408;-48
2022/12/12 05:02:32;;;;;;;24.17;12.60;;;;;;;-1.83;100.00;101056.41;5048964;28;20049;-49
2022/12/12 05:05:07;;;;;;;23.48;11.75;;;;;;;-1.84;100.00;101057.25;5049418;28;20377;-49
2022/12/12 05:07:38;;;;;;;26.17;11.70;;;;;;;-1.90;100.00;101063.34;5050676;28;20099;-51
2022/12/12 05:10:14;;;;;;;23.67;11.65;;;;;;;-1.94;100.00;101066.81;5052125;28;20069;-47
2022/12/12 05:12:45;;;;;;;24.35;12.38;;;;;;;-1.91;100.00;101062.50;5051973;28;20045;-51
2022/12/12 05:15:14;;;;;;;25.58;12.88;;;;;;;-1.92;100.00;101060.78;5051914;28;20127;-47
2022/12/12 05:17:45;;;;;;;23.08;12.38;;;;;;;-1.99;100.00;101068.56;5051942;28;20457;-47
2022/12/12 05:20:14;;;;;;;22.88;12.52;;;;;;;-2.11;100.00;101067.84;5054303;28;20537;-59
2022/12/12 05:22:42;;;;;;;25.38;12.80;;;;;;;-2.11;100.00;101074.72;5053984;28;20118;-59
2022/12/12 05:25:12;;;;;;;26.15;13.15;;;;;;;-2.23;100.00;101075.66;5051636;28;20052;-59
2022/12/12 05:27:41;;;;;;;23.35;12.35;;;;;;;-2.27;100.00;101074.84;5055696;28;20041;-59
2022/12/12 05:30:10;;;;;;;27.67;12.98;;;;;;;-2.38;100.00;101077.50;5055805;28;20462;-59
2022/12/12 05:32:38;;;;;;;24.33;12.80;;;;;;;-2.35;100.00;101076.63;5055576;28;20048;-59
2022/12/12 05:35:08;;;;;;;26.27;13.27;;;;;;;-2.39;100.00;101073.22;5055166;28;20049;-59
2022/12/12 05:37:37;;;;;;;26.52;12.63;;;;;;;-2.38;100.00;101076.66;5055165;28;20051;-59
2022/12/12 05:40:08;;;;;;;27.48;13.10;;;;;;;-2.40;100.00;101078.38;5050674;28;20048;-59
2022/12/12 05:42:37;;;;;;;23.23;12.82;;;;;;;-2.47;100.00;101076.72;5052690;28;20045;-59
2022/12/12 05:45:07;;;;;;;26.88;12.77;;;;;;;-2.50;100.00;101077.59;5050582;28;20076;-59
2022/12/12 05:47:36;;;;;;;25.85;12.98;;;;;;;-2.55;100.00;101077.63;5053771;28;20053;-59
2022/12/12 05:50:05;;;;;;;23.05;12.52;;;;;;;-2.56;100.00;101085.38;5051954;28;20045;-58
2022/12/12 05:52:33;;;;;;;23.60;11.60;;;;;;;-2.57;100.00;101074.19;5055095;28;20500;-59
2022/12/12 05:55:02;;;;;;;24.80;12.95;;;;;;;-2.66;100.00;101086.28;5055104;28;20053;-51
2022/12/12 05:57:30;;;;;;;26.60;13.15;;;;;;;-2.66;100.00;101087.13;5055441;28;20049;-50
2022/12/12 05:59:59;;;;;;;24.98;12.48;;;;;;;-2.65;100.00;101088.00;5055440;28;20075;-51
2022/12/12 06:02:28;;;;;;;22.55;11.85;;;;;;;-2.72;100.00;101092.34;5055266;28;20099;-47
2022/12/12 06:04:56;;;;;;;24.23;12.73;;;;;;;-2.79;100.00;101088.94;5055024;28;20037;-49
2022/12/12 06:07:24;;;;;;;29.45;15.23;;;;;;;-2.82;100.00;101085.53;5054996;28;20081;-50
2022/12/12 06:09:54;;;;;;;28.33;13.25;;;;;;;-2.85;100.00;101089.00;5053814;28;20045;-48
2022/12/12 06:12:23;;;;;;;22.10;12.05;;;;;;;-2.87;100.00;101084.72;5055063;28;20056;-47
2022/12/12 06:14:59;;;;;;;23.75;12.35;;;;;;;-2.83;100.00;101091.56;5054463;28;20079;-47
2022/12/12 06:17:27;;;;;;;25.35;12.23;;;;;;;-2.89;100.00;101089.84;5054393;28;20044;-49
2022/12/12 06:20:00;;;;;;;26.17;12.00;;;;;;;-2.89;100.00;101089.84;5054939;28;20056;-49
2022/12/12 06:22:29;;;;;;;24.23;12.52;;;;;;;-2.95;100.00;101095.88;5053744;28;20053;-51
2022/12/12 06:24:57;;;;;;;24.95;12.43;;;;;;;-3.00;100.00;101092.50;5054059;28;20041;-49
2022/12/12 06:27:25;;;;;;;21.88;12.10;;;;;;;-2.99;100.00;101089.03;5053433;28;20045;-50
2022/12/12 06:29:53;;;;;;;24.10;12.02;;;;;;;-3.06;100.00;101097.66;5054665;28;20036;-48
2022/12/12 06:32:22;;;;;;;27.63;12.82;;;;;;;-3.09;100.00;101092.53;5053381;28;20045;-46
2022/12/12 06:34:51;;;;;;;24.60;12.00;;;;;;;-3.06;100.00;101097.66;5054447;28;20060;-53
2022/12/12 06:37:19;;;;;;;24.75;12.50;;;;;;;-3.11;100.00;101099.41;5054527;28;20076;-46
2022/12/12 06:39:47;;;;;;;26.65;13.40;;;;;;;-3.16;100.00;101099.44;5054727;28;20079;-47
2022/12/12 06:42:15;;;;;;;24.45;12.45;;;;;;;-3.14;100.00;101102.84;5054521;28;20052;-46
2022/12/12 06:44:44;;;;;;;23.45;12.30;;;;;;;-3.17;100.00;101105.44;5054759;28;20053;-49
2022/12/12 06:47:12;;;;;;;28.92;12.75;;;;;;;-3.22;100.00;101107.16;5054324;28;20053;-47
2022/12/12 06:49:41;;;;;;;23.48;12.68;;;;;;;-3.24;100.00;101108.91;5054052;28;20539;-49
2022/12/12 06:52:09;;;;;;;24.70;13.07;;;;;;;-3.31;100.00;101107.19;5054057;28;20045;-49
2022/12/12 06:54:37;;;;;;;28.92;14.23;;;;;;;-3.31;100.00;101113.22;5053831;28;20602;-49
2022/12/12 06:57:05;;;;;;;27.08;14.23;;;;;;;-3.30;100.00;101103.75;5054258;28;20484;-50
2022/12/12 06:59:34;;;;;;;27.55;13.38;;;;;;;-3.26;100.00;101111.47;5053488;28;20128;-49
2022/12/12 07:02:02;;;;;;;24.33;13.50;;;;;;;-3.29;100.00;101114.03;5050024;28;20052;-49
2022/12/12 07:04:30;;;;;;;28.08;12.27;;;;;;;-3.34;100.00;101117.50;5052361;28;20076;-50
2022/12/12 07:07:00;;;;;;;27.25;13.30;;;;;;;-3.40;100.00;101108.94;5053527;28;20053;-47
2022/12/12 07:09:28;;;;;;;27.13;13.85;;;;;;;-3.38;100.00;101116.66;5053627;28;20045;-47
2022/12/12 07:11:56;;;;;;;26.77;13.00;;;;;;;-3.44;100.00;101116.69;5053917;28;20049;-48
2022/12/12 07:14:24;;;;;;;25.88;12.45;;;;;;;-3.46;100.00;101114.09;5053898;28;20052;-49
2022/12/12 07:16:52;;;;;;;26.73;12.60;;;;;;;-3.46;100.00;101118.41;5052022;28;20049;-51
2022/12/12 07:19:21;;;;;;;27.58;13.63;;;;;;;-3.50;100.00;101114.13;5049747;28;20077;-47
2022/12/12 07:21:49;;;;;;;28.90;13.93;;;;;;;-3.53;100.00;101117.56;5050983;28;20045;-48
2022/12/12 07:24:19;;;;;;;34.28;16.10;;;;;;;-3.45;100.00;101126.13;5048140;28;20094;-48
2022/12/12 07:26:47;;;;;;;31.10;16.13;;;;;;;-3.46;100.00;101126.97;5053573;28;20473;-49
2022/12/12 07:29:15;;;;;;;31.65;15.00;;;;;;;-3.50;100.00;101127.00;5053372;28;20048;-48
2022/12/12 07:31:43;;;;;;;33.20;16.52;;;;;;;-3.49;100.00;101132.13;5053750;28;20060;-58
2022/12/12 07:34:12;;;;;;;32.58;15.00;;;;;;;-3.54;100.00;101135.53;5053464;28;20070;-57
2022/12/12 07:36:40;;;;;;;29.27;16.17;;;;;;;-3.55;100.00;101129.56;5049670;28;20061;-57
2022/12/12 07:39:08;;;;;;;34.20;16.42;;;;;;;-3.58;100.00;101135.56;5047362;28;20140;-58
2022/12/12 07:41:38;;;;;;;31.88;16.38;;;;;;;-3.58;100.00;101138.13;5049804;28;20572;-58
2022/12/12 07:44:07;;;;;;;33.03;16.58;;;;;;;-3.55;100.00;101133.84;5047636;28;20048;-57
2022/12/12 07:46:35;;;;;;;34.33;17.60;;;;;;;-3.58;100.00;101139.84;5047812;28;20049;-57
2022/12/12 07:49:04;;;;;;;35.95;16.80;;;;;;;-3.58;100.00;101140.69;5049107;28;20045;-58
2022/12/12 07:51:32;;;;;;;31.65;17.35;;;;;;;-3.55;100.00;101145.00;5053011;28;20059;-57
2022/12/12 07:54:00;;;;;;;34.33;17.05;;;;;;;-3.56;100.00;101153.56;5052990;28;20595;-57
2022/12/12 07:56:28;;;;;;;31.65;16.02;;;;;;;-3.57;100.00;101146.72;5051382;28;20084;-57
2022/12/12 07:58:58;;;;;;;31.83;15.40;;;;;;;-3.58;100.00;101156.13;5047965;28;20045;-57
2022/12/12 08:01:28;;;;;;;29.60;15.77;;;;;;;-3.58;100.00;101157.84;5048185;28;20041;-58
2022/12/12 08:03:56;;;;;;;29.88;15.50;;;;;;;-3.58;100.00;101155.28;5051416;28;20053;-57
2022/12/12 08:06:24;;;;;;;29.60;16.20;;;;;;;-3.54;100.00;101167.28;5052702;28;20538;-46
2022/12/12 08:08:53;;;;;;;32.47;15.57;;;;;;;-3.53;100.00;101162.97;5050137;28;20040;-49
2022/12/12 08:11:24;;;;;;;34.53;16.52;;;;;;;-3.58;100.00;101171.56;5049690;28;20431;-48
2022/12/12 08:13:53;;;;;;;35.15;16.67;;;;;;;-3.58;100.00;101171.56;5050454;28;20049;-49
2022/12/12 08:16:27;;;;;;;34.95;17.23;;;;;;;-3.48;100.00;101171.56;5052638;28;20503;-50
2022/12/12 08:18:57;;;;;;;32.50;16.80;;;;;;;-3.45;100.00;101168.97;5052704;28;20041;-50
2022/12/12 08:21:26;;;;;;;36.72;16.85;;;;;;;-3.36;100.00;101171.53;5052213;28;20045;-48
2022/12/12 08:23:56;;;;;;;36.90;17.63;;;;;;;-3.24;100.00;101171.50;5052119;28;20037;-49
2022/12/12 08:26:25;;;;;;;35.83;15.95;;;;;;;-3.17;100.00;101174.91;5052279;28;20102;-47
2022/12/12 08:28:54;;;;;;;34.53;17.45;;;;;;;-3.13;100.00;101178.34;5052088;28;20558;-49
2022/12/12 08:31:22;;;;;;;35.28;17.10;;;;;;;-3.05;100.00;101179.16;5052279;28;20496;-49
2022/12/12 08:33:53;;;;;;;34.80;16.88;;;;;;;-3.01;100.00;101177.41;5052522;28;20131;-48
2022/12/12 08:36:22;;;;;;;35.22;17.63;;;;;;;-2.99;100.00;101176.56;5052265;28;20053;-50
2022/12/12 08:38:53;;;;;;;34.95;16.83;;;;;;;-2.94;100.00;101181.72;5052476;28;20446;-47
2022/12/12 08:41:21;;;;;;;34.55;16.75;;;;;;;-2.91;100.00;101185.09;5052377;28;20086;-46
2022/12/12 08:43:49;;;;;;;33.10;16.17;;;;;;;-2.82;100.00;101179.06;5051567;28;20080;-46
2022/12/12 08:46:21;;;;;;;32.70;16.08;;;;;;;-2.81;100.00;101180.81;5047582;28;20290;-47
2022/12/12 08:48:50;;;;;;;38.15;17.17;;;;;;;-2.76;100.00;101178.19;5050703;28;20427;-48
2022/12/12 08:51:19;;;;;;;34.95;16.60;;;;;;;-2.72;100.00;101182.47;5052323;28;20052;-49
2022/12/12 08:53:51;;;;;;;37.92;18.10;;;;;;;-2.67;100.00;101178.16;5049920;28;20045;-47
2022/12/12 08:56:21;;;;;;;39.83;18.27;;;;;;;-2.66;100.00;101176.41;5052186;28;20052;-49
2022/12/12 08:58:49;;;;;;;35.13;17.92;;;;;;;-2.63;100.00;101173.81;5052133;28;20075;-47
2022/12/12 09:01:20;;;;;;;33.17;17.23;;;;;;;-2.57;100.00;101184.09;5052588;28;20103;-50
2022/12/12 09:03:50;;;;;;;36.85;16.85;;;;;;;-2.56;100.00;101181.50;5052249;28;20084;-48
2022/12/12 09:06:19;;;;;;;37.67;17.40;;;;;;;-2.49;100.00;101189.22;5052271;28;20106;-47
2022/12/12 09:08:48;;;;;;;37.25;18.20;;;;;;;-2.47;100.00;101185.75;5051824;28;20041;-47
2022/12/12 09:11:16;;;;;;;37.40;16.23;;;;;;;-2.44;100.00;101175.44;5048110;28;20077;-48
2022/12/12 09:13:44;;;;;;;37.50;18.33;;;;;;;-2.42;100.00;101180.59;5047308;28;20053;-46
2022/12/12 09:16:13;;;;;;;37.97;18.05;;;;;;;-2.40;100.00;101186.56;5047189;28;20093;-48
2022/12/12 09:18:41;;;;;;;37.10;18.58;;;;;;;-2.38;100.00;101182.28;5051149;28;20500;-47
2022/12/12 09:21:16;;;;;;;35.28;18.30;;;;;;;-2.25;100.00;101189.06;5051807;28;20076;-52
2022/12/12 09:23:46;;;;;;;34.05;16.80;;;;;;;-2.23;100.00;101183.91;5051671;28;20111;-47
2022/12/12 09:26:14;;;;;;;38.08;17.45;;;;;;;-2.19;100.00;101179.59;5051968;28;20106;-50
2022/12/12 09:28:42;;;;;;;38.95;18.27;;;;;;;-2.14;100.00;101181.28;5051967;28;20537;-49
2022/12/12 09:31:12;;;;;;;36.30;17.05;;;;;;;-2.02;100.00;101185.47;5052034;28;20052;-48
2022/12/12 09:33:41;;;;;;;37.97;17.90;;;;;;;-2.04;100.00;101192.38;5051940;28;20080;-58
2022/12/12 09:36:10;;;;;;;36.78;17.33;;;;;;;-2.04;100.00;101195.78;5049797;28;20057;-57
2022/12/12 09:38:39;;;;;;;34.75;17.30;;;;;;;-2.06;100.00;101188.94;5047853;28;20110;-56
2022/12/12 09:41:15;;;;;;;33.13;16.33;;;;;;;-2.10;100.00;101193.28;5047482;28;20053;-57
2022/12/12 09:43:54;;;;;;;33.72;16.05;;;;;;;-2.11;100.00;101188.13;5047273;28;20447;-57
2022/12/12 09:46:34;;;;;;;38.70;18.75;;;;;;;-2.08;100.00;101198.41;5047129;28;20503;-57
2022/12/12 09:49:11;;;;;;;36.35;17.52;;;;;;;-2.04;100.00;101194.94;5047878;28;20469;-57
2022/12/12 09:51:40;;;;;;;37.67;17.77;;;;;;;-2.01;100.00;101188.91;5047301;28;20085;-57
2022/12/12 09:54:12;;;;;;;37.45;16.88;;;;;;;-1.91;100.00;101191.41;5047856;28;20045;-57
2022/12/12 09:56:56;;;;;;;31.27;16.67;;;;;;;-1.87;100.00;101184.50;5051574;28;20365;-57
2022/12/12 09:59:35;;;;;;;36.97;16.83;;;;;;;-1.76;100.00;101192.13;5049796;28;20527;-57
2022/12/12 10:02:19;;;;;;;35.47;15.70;;;;;;;-1.78;100.00;101191.31;5047680;28;20438;-57
2022/12/12 10:04:56;;;;;;;33.58;15.60;;;;;;;-1.68;100.00;101192.94;5048742;28;20044;-57
2022/12/12 10:07:29;;;;;;;35.45;17.25;;;;;;;-1.70;100.00;101195.53;5055199;28;20053;-57
2022/12/12 10:10:03;;;;;;;33.35;16.00;;;;;;;-1.62;100.00;101200.63;5055264;28;20049;-57
2022/12/12 10:12:34;;;;;;;37.90;16.88;;;;;;;-1.50;100.00;101191.06;5052554;28;20041;-57
2022/12/12 10:15:04;;;;;;;33.28;15.98;;;;;;;-1.57;100.00;101188.53;5049634;28;20519;-58
2022/12/12 10:17:36;;;;;;;33.25;16.10;;;;;;;-1.58;100.00;101184.25;5054115;28;20057;-57
2022/12/12 10:20:08;;;;;;;31.40;15.23;;;;;;;-1.49;100.00;101188.44;5050646;28;20041;-57
2022/12/12 10:22:41;;;;;;;38.17;17.80;;;;;;;-1.55;100.00;101184.22;5051851;28;20557;-58
2022/12/12 10:25:19;;;;;;;;;;;;;;;-1.49;100.00;101182.44;5051711;28;20484;-57
2022/12/12 10:27:51;;;;;;;33.35;16.75;;;;;;;-1.49;100.00;101183.28;5050139;28;19932;-58
2022/12/12 10:30:21;;;;;;;29.70;14.90;;;;;;;-1.43;100.00;101188.41;5050365;28;20049;-58
2022/12/12 10:33:09;;;;;;;32.35;17.02;;;;;;;-1.45;100.00;101184.13;5051348;28;20523;-58
2022/12/12 10:35:46;;;;;;;33.78;14.88;;;;;;;-1.52;100.00;101190.22;5050870;28;20053;-58
2022/12/12 10:38:30;;;;;;;29.67;14.82;;;;;;;-1.48;100.00;101184.16;5054332;28;20048;-58
2022/12/12 10:41:05;;;;;;;31.15;15.25;;;;;;;-1.48;100.00;101179.00;5052988;28;20540;-58
2022/12/12 10:43:40;;;;;;;31.50;14.40;;;;;;;-1.39;100.00;101181.47;5049425;28;20053;-48
2022/12/12 10:46:27;;;;;;;30.80;14.68;;;;;;;-1.35;100.00;101172.81;5049713;28;20462;-50
2022/12/12 10:48:56;;;;;;;27.73;15.15;;;;;;;-1.36;100.00;101169.41;5053965;28;20519;-50
2022/12/12 10:51:27;;;;;;;30.52;15.73;;;;;;;-1.36;100.00;101164.25;5054166;28;20059;-51
2022/12/12 10:53:55;;;;;;;29.25;14.43;;;;;;;-1.36;100.00;101168.56;5054094;28;20061;-46
2022/12/12 10:56:25;;;;;;;29.95;15.27;;;;;;;-1.35;100.00;101165.09;5054435;28;20048;-48
2022/12/12 10:58:57;;;;;;;28.48;13.65;;;;;;;-1.38;100.00;101165.13;5054095;28;20049;-53
2022/12/12 11:01:28;;;;;;;31.63;14.40;;;;;;;-1.32;100.00;101165.06;5053976;28;20045;-48
2022/12/12 11:04:16;;;;;;;31.25;15.27;;;;;;;-1.28;100.00;101171.91;5053805;28;20544;-51
2022/12/12 11:06:48;;;;;;;30.38;14.75;;;;;;;-1.25;100.00;101165.88;5053953;28;20393;-48
2022/12/12 11:09:20;;;;;;;28.98;13.88;;;;;;;-1.27;100.00;101163.31;5053482;28;20081;-52
2022/12/12 11:12:01;;;;;;;41.58;15.25;;;;;;;-1.18;100.00;101154.59;5053905;28;20079;-47
2022/12/12 11:14:33;;;;;;;30.27;14.80;;;;;;;-0.91;100.00;101153.41;5053851;28;20095;-49
2022/12/12 11:17:03;;;;;;;28.85;14.77;;;;;;;-0.91;100.00;101150.81;5053319;28;20041;-52
2022/12/12 11:19:38;;;;;;;30.08;14.00;;;;;;;-0.92;100.00;101150.84;5053580;28;20128;-57
2022/12/12 11:22:06;;;;;;;30.30;14.98;;;;;;;-1.04;100.00;101144.97;5053996;28;20098;-56
2022/12/12 11:24:41;;;;;;;27.92;14.27;;;;;;;-1.10;100.00;101137.28;5053261;28;20056;-54
2022/12/12 11:27:21;;;;;;;26.55;13.60;;;;;;;-1.08;100.00;101147.59;5052332;28;20064;-54
2022/12/12 11:29:52;;;;;;;29.08;14.20;;;;;;;-1.09;100.00;101140.72;5053148;28;20103;-57
2022/12/12 11:32:25;;;;;;;29.42;13.38;;;;;;;-1.11;100.00;101151.06;5049617;28;20056;-53
2022/12/12 11:34:57;;;;;;;25.73;11.93;;;;;;;-1.12;100.00;101151.09;5049602;28;20092;-51
2022/12/12 11:37:28;;;;;;;26.50;13.32;;;;;;;-1.13;100.00;101149.38;5050719;28;20064;-52
2022/12/12 11:39:57;;;;;;;30.60;13.68;;;;;;;-1.10;100.00;101145.03;5053233;28;20033;-53
2022/12/12 11:42:29;;;;;;;29.10;13.77;;;;;;;-1.11;100.00;101145.06;5053438;28;20138;-58